createdAt,value
2022-12-16T00:01:24.277Z,68.30
2022-12-16T00:03:55.041Z,69.60
2022-12-16T00:06:29.796Z,70.70
2022-12-16T00:09:00.489Z,71.90
2022-12-16T00:11:28.968Z,66.30
2022-12-16T00:13:56.817Z,67.20
2022-12-16T00:16:24.844Z,69.80
2022-12-16T00:18:52.932Z,64.70
2022-12-16T00:21:21.324Z,70.10
2022-12-16T00:23:49.533Z,67.40
2022-12-16T00:26:17.516Z,68.10
2022-12-16T00:28:45.411Z,64.70
2022-12-16T00:31:13.365Z,69.40
2022-12-16T00:33:41.902Z,71.30
2022-12-16T00:36:10.534Z,66.60
2022-12-16T00:38:38.395Z,66.80
2022-12-16T00:41:06.443Z,69.80
2022-12-16T00:43:34.956Z,66.70
2022-12-16T00:46:03.767Z,69.10
2022-12-16T00:48:32.087Z,64.50
2022-12-16T00:51:00.075Z,63.70
2022-12-16T00:53:28.540Z,61.30
2022-12-16T00:56:08.902Z,62.60
2022-12-16T00:58:38.075Z,62.50
2022-12-16T01:01:06.967Z,59.90
2022-12-16T01:03:35.968Z,60.10
2022-12-16T01:06:13.185Z,61.20
2022-12-16T01:08:48.922Z,51.40
2022-12-16T01:11:19.926Z,52.10
2022-12-16T01:13:52.166Z,57.20
2022-12-16T01:16:21.050Z,53.60
2022-12-16T01:18:49.152Z,51.60
2022-12-16T01:21:17.361Z,52.40
2022-12-16T01:23:47.575Z,55.60
2022-12-16T01:26:18.451Z,53.90
2022-12-16T01:28:49.573Z,52.10
2022-12-16T01:31:19.525Z,53.30
2022-12-16T01:33:48.460Z,56.10
2022-12-16T01:36:17.188Z,51.40
2022-12-16T01:38:45.057Z,51.20
2022-12-16T01:41:15.677Z,52.30
2022-12-16T01:43:46.627Z,53.20
2022-12-16T01:46:14.969Z,54.60
2022-12-16T01:49:04.246Z,52.00
2022-12-16T01:51:38.702Z,54.10
2022-12-16T01:54:13.272Z,48.90
2022-12-16T01:56:47.998Z,51.90
2022-12-16T01:59:19.278Z,50.80
2022-12-16T02:01:47.508Z,48.30
2022-12-16T02:04:15.626Z,46.40
2022-12-16T02:06:43.504Z,47.20
2022-12-16T02:09:15.568Z,53.00
2022-12-16T02:11:49.632Z,51.40
2022-12-16T02:14:46.478Z,48.30
2022-12-16T02:17:26.734Z,50.70
2022-12-16T02:20:29.211Z,49.70
2022-12-16T02:23:37.836Z,50.50
2022-12-16T02:26:33.904Z,42.90
2022-12-16T02:29:24.153Z,48.50
2022-12-16T02:31:55.236Z,48.00
2022-12-16T02:34:38.624Z,43.00
2022-12-16T02:37:28.709Z,43.60
2022-12-16T02:40:01.012Z,43.00
2022-12-16T02:42:41.062Z,43.80
2022-12-16T02:45:20.266Z,45.30
2022-12-16T02:47:48.336Z,39.20
2022-12-16T02:50:22.041Z,43.90
2022-12-16T02:55:20.982Z,36.60
2022-12-16T02:58:16.496Z,39.70
2022-12-16T03:01:19.910Z,39.50
2022-12-16T03:04:13.117Z,36.20
2022-12-16T03:06:45.842Z,38.40
2022-12-16T03:09:19.634Z,37.50
2022-12-16T03:14:19.622Z,36.00
2022-12-16T03:16:49.886Z,38.90
2022-12-16T03:19:19.800Z,34.80
2022-12-16T03:22:12.521Z,34.20
2022-12-16T03:24:41.955Z,32.60
2022-12-16T03:27:20.766Z,32.00
2022-12-16T03:30:06.988Z,34.10
2022-12-16T03:32:38.036Z,31.50
2022-12-16T03:35:19.977Z,31.50
2022-12-16T03:37:53.089Z,32.40
2022-12-16T03:40:22.814Z,31.80
2022-12-16T03:42:53.406Z,33.10
2022-12-16T03:45:26.223Z,33.10
2022-12-16T03:47:58.538Z,32.40
2022-12-16T03:50:36.832Z,30.70
2022-12-16T03:53:06.072Z,32.80
2022-12-16T03:55:34.389Z,30.30
2022-12-16T03:58:02.697Z,29.10
2022-12-16T04:00:30.694Z,27.80
2022-12-16T04:02:59.012Z,27.30
2022-12-16T04:05:27.499Z,29.30
2022-12-16T04:08:00.227Z,28.30
2022-12-16T04:10:50.313Z,29.20
2022-12-16T04:13:37.055Z,28.70
2022-12-16T04:16:24.575Z,24.90
2022-12-16T04:19:12.383Z,25.70
2022-12-16T04:21:59.194Z,27.30
2022-12-16T04:24:30.996Z,27.40
2022-12-16T04:27:18.172Z,26.20
2022-12-16T04:30:04.984Z,28.00
2022-12-16T04:32:52.897Z,26.80
2022-12-16T04:35:40.038Z,28.40
2022-12-16T04:38:26.651Z,27.10
2022-12-16T04:41:13.449Z,26.20
2022-12-16T04:44:00.386Z,26.50
2022-12-16T04:46:47.327Z,25.60
2022-12-16T04:49:34.092Z,26.40
2022-12-16T04:52:20.676Z,26.60
2022-12-16T04:55:07.807Z,26.90
2022-12-16T04:57:55.436Z,28.30
2022-12-16T05:00:42.262Z,30.20
2022-12-16T05:03:29.758Z,27.70
2022-12-16T05:06:16.732Z,27.10
2022-12-16T05:09:03.505Z,26.50
2022-12-16T05:11:50.117Z,26.20
2022-12-16T05:14:37.015Z,30.00
2022-12-16T05:17:24.110Z,30.90
2022-12-16T05:20:11.045Z,29.40
2022-12-16T05:22:57.957Z,29.30
2022-12-16T05:25:44.663Z,30.70
2022-12-16T05:28:32.161Z,30.30
2022-12-16T05:31:18.748Z,30.60
2022-12-16T05:34:05.608Z,31.20
2022-12-16T05:36:52.715Z,32.10
2022-12-16T05:39:39.328Z,28.10
2022-12-16T05:42:27.219Z,28.00
2022-12-16T05:45:14.075Z,31.40
2022-12-16T05:48:00.714Z,29.30
2022-12-16T05:50:47.010Z,30.20
2022-12-16T05:53:33.932Z,28.60
2022-12-16T05:56:31.566Z,28.10
2022-12-16T05:59:25.849Z,29.50
2022-12-16T06:02:12.974Z,29.40
2022-12-16T06:04:59.761Z,29.50
2022-12-16T06:07:46.379Z,30.30
2022-12-16T06:10:32.980Z,29.10
2022-12-16T06:13:19.790Z,32.00
2022-12-16T06:16:08.889Z,32.00
2022-12-16T06:18:56.179Z,31.20
2022-12-16T06:21:43.399Z,31.40
2022-12-16T06:24:30.008Z,33.70
2022-12-16T06:27:16.783Z,31.70
2022-12-16T06:30:03.176Z,32.80
2022-12-16T06:32:49.770Z,35.40
2022-12-16T06:35:36.121Z,33.40
2022-12-16T06:38:22.515Z,33.60
2022-12-16T06:41:09.328Z,35.40
2022-12-16T06:43:55.857Z,38.40
2022-12-16T06:46:42.639Z,35.30
2022-12-16T06:49:29.246Z,34.60
2022-12-16T06:52:15.750Z,40.30
2022-12-16T06:55:02.458Z,38.30
2022-12-16T06:57:49.164Z,37.70
2022-12-16T07:00:35.879Z,39.30
2022-12-16T07:03:22.680Z,38.10
2022-12-16T07:06:12.769Z,38.00
2022-12-16T07:08:59.475Z,42.50
2022-12-16T07:11:46.083Z,41.40
2022-12-16T07:14:32.737Z,43.20
2022-12-16T07:17:19.180Z,48.80
2022-12-16T07:20:05.684Z,40.60
2022-12-16T07:23:01.069Z,41.80
2022-12-16T07:25:50.957Z,45.90
2022-12-16T07:28:37.349Z,41.50
2022-12-16T07:31:24.559Z,44.20
2022-12-16T07:34:11.307Z,43.20
2022-12-16T07:36:57.924Z,40.30
2022-12-16T07:39:46.706Z,39.10
2022-12-16T07:42:35.140Z,39.70
2022-12-16T07:45:22.067Z,40.80
2022-12-16T07:48:10.590Z,40.70
2022-12-16T07:50:58.319Z,39.90
2022-12-16T07:53:46.586Z,39.60
2022-12-16T07:56:33.578Z,39.70
2022-12-16T07:59:20.168Z,42.30
2022-12-16T08:02:08.405Z,41.20
2022-12-16T08:04:55.544Z,40.00
2022-12-16T08:07:42.866Z,39.40
2022-12-16T08:10:29.878Z,38.00
2022-12-16T08:13:26.015Z,42.80
2022-12-16T08:16:12.877Z,37.80
2022-12-16T08:18:59.834Z,42.10
2022-12-16T08:21:46.383Z,39.40
2022-12-16T08:24:32.743Z,40.50
2022-12-16T08:27:19.007Z,39.30
2022-12-16T08:30:05.399Z,41.40
2022-12-16T08:32:57.158Z,40.80
2022-12-16T08:35:45.817Z,34.60
2022-12-16T08:38:32.728Z,38.50
2022-12-16T08:41:19.332Z,40.60
2022-12-16T08:44:06.043Z,42.10
2022-12-16T08:46:52.755Z,48.80
2022-12-16T08:49:39.242Z,47.20
2022-12-16T08:52:26.032Z,45.50
2022-12-16T08:55:12.871Z,46.50
2022-12-16T08:57:59.528Z,47.90
2022-12-16T09:00:45.897Z,45.90
2022-12-16T09:03:32.569Z,48.30
2022-12-16T09:06:19.604Z,47.70
2022-12-16T09:09:06.205Z,49.80
2022-12-16T09:11:52.813Z,49.10
2022-12-16T09:14:40.734Z,41.00
2022-12-16T09:17:26.999Z,39.80
2022-12-16T09:20:13.457Z,41.50
2022-12-16T09:23:00.059Z,39.90
2022-12-16T09:25:46.965Z,40.40
2022-12-16T09:28:50.362Z,41.40
2022-12-16T09:31:37.241Z,40.90
2022-12-16T09:34:23.762Z,39.40
2022-12-16T09:37:10.899Z,35.80
2022-12-16T09:39:57.709Z,34.80
2022-12-16T09:42:57.317Z,34.70
2022-12-16T09:46:15.198Z,30.10
2022-12-16T09:49:25.824Z,29.60
2022-12-16T09:52:18.132Z,30.60
2022-12-16T09:55:06.665Z,31.80
2022-12-16T09:57:55.865Z,34.70
2022-12-16T10:00:46.384Z,33.50
2022-12-16T10:03:57.509Z,31.70
2022-12-16T10:06:57.093Z,34.10
2022-12-16T10:10:11.935Z,33.50
2022-12-16T10:13:14.105Z,37.10
2022-12-16T10:16:19.383Z,34.20
2022-12-16T10:19:20.572Z,35.20
2022-12-16T10:22:19.284Z,37.50
2022-12-16T10:25:25.132Z,40.20
2022-12-16T10:28:23.727Z,44.60
2022-12-16T10:31:10.345Z,45.40
2022-12-16T10:33:57.653Z,46.70
2022-12-16T10:36:47.998Z,46.60
2022-12-16T10:39:40.805Z,48.10
2022-12-16T10:42:43.748Z,53.80
2022-12-16T10:45:40.428Z,52.90
2022-12-16T10:48:29.991Z,48.90
2022-12-16T10:51:20.601Z,49.80
2022-12-16T10:54:10.104Z,50.00
2022-12-16T10:57:31.958Z,41.40
2022-12-16T11:00:34.666Z,42.40
2022-12-16T11:03:43.141Z,35.90
2022-12-16T11:06:35.243Z,33.60
2022-12-16T11:09:52.258Z,33.90
2022-12-16T11:12:49.002Z,39.30
2022-12-16T11:15:48.564Z,39.00
2022-12-16T11:18:41.375Z,38.70
2022-12-16T11:21:40.358Z,38.50
2022-12-16T11:24:35.371Z,40.90
2022-12-16T11:27:43.778Z,39.60
2022-12-16T11:30:42.977Z,37.90
2022-12-16T11:33:45.954Z,36.40
2022-12-16T11:36:41.407Z,40.00
2022-12-16T11:39:36.076Z,38.70
2022-12-16T11:42:25.955Z,37.00
2022-12-16T11:45:16.246Z,37.10
2022-12-16T11:48:25.174Z,39.10
2022-12-16T11:51:15.929Z,37.30
2022-12-16T11:54:42.112Z,36.50
2022-12-16T11:57:44.718Z,36.70
2022-12-16T12:00:37.221Z,41.00
2022-12-16T12:03:36.002Z,39.20
2022-12-16T12:06:27.343Z,40.10
2022-12-16T12:09:32.482Z,42.90
2022-12-16T12:12:29.309Z,41.10
2022-12-16T12:15:36.309Z,38.90
2022-12-16T12:18:40.734Z,45.60
2022-12-16T12:21:30.717Z,40.40
2022-12-16T12:24:20.600Z,45.70
2022-12-16T12:27:34.836Z,46.10
2022-12-16T12:30:26.378Z,45.00
2022-12-16T12:34:09.798Z,49.80
2022-12-16T12:37:06.977Z,48.00
2022-12-16T12:40:08.314Z,44.80
2022-12-16T12:43:06.510Z,47.80
2022-12-16T12:46:18.227Z,47.30
2022-12-16T12:49:30.321Z,49.80
2022-12-16T12:52:33.383Z,45.90
2022-12-16T12:55:29.559Z,49.30
2022-12-16T12:58:19.173Z,51.50
2022-12-16T13:01:12.536Z,46.40
2022-12-16T13:04:09.837Z,51.60
2022-12-16T13:06:57.540Z,57.30
2022-12-16T13:09:45.474Z,53.40
2022-12-16T13:12:31.990Z,59.20
2022-12-16T13:15:21.402Z,63.70
2022-12-16T13:18:20.468Z,66.70
2022-12-16T13:21:09.420Z,67.20
2022-12-16T13:23:58.678Z,68.50
2022-12-16T13:26:48.965Z,61.60
2022-12-16T13:30:07.928Z,58.80
2022-12-16T13:32:56.685Z,58.20
2022-12-16T13:36:03.219Z,59.60
2022-12-16T13:38:49.662Z,55.80
2022-12-16T13:41:45.566Z,60.80
2022-12-16T13:45:03.064Z,59.80
2022-12-16T13:47:54.399Z,66.20
2022-12-16T13:51:02.846Z,68.90
2022-12-16T13:54:11.465Z,72.30
2022-12-16T13:57:07.909Z,73.40
2022-12-16T13:59:57.891Z,74.00
2022-12-16T14:03:02.704Z,80.90
2022-12-16T14:05:55.472Z,74.90
2022-12-16T14:08:44.142Z,90.40
2022-12-16T14:11:41.787Z,91.50
2022-12-16T14:14:38.632Z,128.20
2022-12-16T14:17:33.268Z,113.20
2022-12-16T14:20:37.902Z,128.60
2022-12-16T14:23:56.781Z,106.60
2022-12-16T14:26:45.659Z,87.80
2022-12-16T14:29:45.249Z,81.30
2022-12-16T14:32:49.182Z,80.90
2022-12-16T14:35:45.294Z,75.70
2022-12-16T14:38:42.813Z,91.60
2022-12-16T14:41:40.045Z,94.30
2022-12-16T14:44:42.416Z,91.20
2022-12-16T14:47:37.082Z,104.50
2022-12-16T14:50:39.018Z,74.20
2022-12-16T14:53:40.576Z,80.30
2022-12-16T14:56:36.383Z,70.70
2022-12-16T14:59:33.318Z,62.00
2022-12-16T15:02:51.888Z,65.20
2022-12-16T15:05:45.215Z,80.00
2022-12-16T15:08:32.253Z,86.00
2022-12-16T15:11:20.205Z,84.00
2022-12-16T15:14:17.728Z,81.60
2022-12-16T15:17:07.097Z,83.30
2022-12-16T15:20:07.623Z,72.00
2022-12-16T15:22:55.667Z,71.80
2022-12-16T15:25:45.006Z,73.00
2022-12-16T15:29:00.208Z,60.30
2022-12-16T15:31:56.815Z,68.20
2022-12-16T15:35:19.063Z,69.10
2022-12-16T15:38:25.464Z,65.60
2022-12-16T15:41:12.481Z,70.00
2022-12-16T15:43:59.393Z,59.70
2022-12-16T15:46:48.660Z,60.00
2022-12-16T15:49:43.373Z,59.10
2022-12-16T15:52:52.480Z,61.30
2022-12-16T15:55:49.723Z,62.70
2022-12-16T15:58:49.951Z,59.70
2022-12-16T16:01:40.352Z,65.30
2022-12-16T16:04:48.573Z,59.90
2022-12-16T16:07:41.423Z,56.00
2022-12-16T16:10:36.428Z,54.10
2022-12-16T16:13:23.655Z,53.60
2022-12-16T16:16:12.104Z,53.70
2022-12-16T16:19:01.264Z,52.50
2022-12-16T16:21:52.268Z,67.90
2022-12-16T16:24:39.079Z,53.20
2022-12-16T16:27:31.421Z,57.80
2022-12-16T16:30:19.152Z,64.30
2022-12-16T16:33:05.772Z,55.20
2022-12-16T16:35:52.671Z,55.90
2022-12-16T16:38:39.283Z,60.00
2022-12-16T16:41:50.865Z,52.10
2022-12-16T16:44:37.428Z,61.70
2022-12-16T16:47:34.215Z,60.30
2022-12-16T16:50:21.522Z,56.90
2022-12-16T16:53:08.144Z,55.50
2022-12-16T16:55:54.982Z,56.30
2022-12-16T16:58:49.154Z,59.10
2022-12-16T17:01:37.676Z,63.30
2022-12-16T17:04:24.492Z,58.00
2022-12-16T17:07:11.714Z,53.30
2022-12-16T17:09:58.535Z,49.30
2022-12-16T17:12:48.716Z,50.40
2022-12-16T17:15:38.786Z,47.60
2022-12-16T17:18:26.976Z,51.30
2022-12-16T17:21:14.061Z,45.80
2022-12-16T17:24:03.307Z,41.20
2022-12-16T17:26:50.836Z,43.30
2022-12-16T17:29:41.374Z,45.30
2022-12-16T17:32:30.328Z,43.80
2022-12-16T17:35:17.493Z,49.50
2022-12-16T17:38:05.006Z,49.70
2022-12-16T17:40:52.293Z,46.90
2022-12-16T17:43:39.139Z,48.40
2022-12-16T17:46:30.157Z,50.40
2022-12-16T17:49:18.691Z,54.40
2022-12-16T17:52:05.604Z,50.60
2022-12-16T17:54:52.992Z,52.60
2022-12-16T17:57:39.727Z,47.50
2022-12-16T18:00:27.859Z,42.70
2022-12-16T18:03:14.941Z,45.50
2022-12-16T18:06:02.709Z,48.70
2022-12-16T18:08:52.754Z,43.60
2022-12-16T18:11:39.579Z,45.20
2022-12-16T18:14:27.674Z,44.20
2022-12-16T18:17:14.303Z,43.60
2022-12-16T18:20:00.858Z,50.20
2022-12-16T18:22:47.487Z,46.30
2022-12-16T18:25:34.383Z,47.00
2022-12-16T18:28:22.310Z,50.30
2022-12-16T18:31:09.467Z,44.50
2022-12-16T18:33:57.713Z,51.20
2022-12-16T18:36:44.330Z,55.90
2022-12-16T18:39:30.859Z,56.40
2022-12-16T18:42:17.339Z,54.30
2022-12-16T18:45:04.333Z,60.60
2022-12-16T18:47:50.555Z,64.50
2022-12-16T18:50:38.221Z,68.50
2022-12-16T18:53:27.163Z,59.20
2022-12-16T18:56:24.493Z,57.10
2022-12-16T18:59:13.234Z,62.90
2022-12-16T19:02:01.202Z,61.40
2022-12-16T19:04:48.578Z,57.80
2022-12-16T19:07:35.051Z,59.40
2022-12-16T19:10:21.912Z,58.60
2022-12-16T19:13:08.703Z,60.90
2022-12-16T19:15:55.404Z,59.50
2022-12-16T19:18:43.251Z,54.30
2022-12-16T19:21:30.177Z,59.90
2022-12-16T19:24:16.766Z,49.00
2022-12-16T19:27:03.978Z,51.00
2022-12-16T19:29:50.610Z,48.50
2022-12-16T19:32:38.993Z,51.70
2022-12-16T19:35:27.241Z,49.10
2022-12-16T19:38:14.528Z,48.20
2022-12-16T19:41:12.567Z,51.10
2022-12-16T19:44:05.407Z,50.90
2022-12-16T19:46:56.045Z,45.80
2022-12-16T19:49:44.956Z,51.40
2022-12-16T19:52:32.373Z,49.20
2022-12-16T19:55:18.750Z,50.40
2022-12-16T19:58:05.265Z,50.30
2022-12-16T20:00:52.158Z,59.00
2022-12-16T20:03:39.274Z,47.30
2022-12-16T20:06:28.058Z,45.40
2022-12-16T20:09:16.063Z,43.70
2022-12-16T20:12:04.552Z,50.20
2022-12-16T20:14:51.620Z,48.10
2022-12-16T20:17:39.870Z,46.60
2022-12-16T20:20:28.023Z,49.90
2022-12-16T20:23:14.917Z,51.50
2022-12-16T20:26:01.607Z,53.00
2022-12-16T20:28:49.292Z,52.90
2022-12-16T20:31:35.864Z,47.10
2022-12-16T20:34:22.342Z,50.40
2022-12-16T20:37:10.369Z,52.70
2022-12-16T20:39:57.176Z,50.60
2022-12-16T20:42:47.484Z,53.30
2022-12-16T20:45:36.235Z,50.30
2022-12-16T20:48:24.402Z,52.40
2022-12-16T20:51:19.735Z,52.80
2022-12-16T20:54:12.359Z,47.50
2022-12-16T20:57:01.715Z,54.10
2022-12-16T20:59:49.671Z,52.20
2022-12-16T21:02:36.885Z,47.90
2022-12-16T21:05:28.615Z,50.40
2022-12-16T21:08:15.578Z,58.10
2022-12-16T21:11:02.476Z,53.60
2022-12-16T21:13:49.616Z,54.40
2022-12-16T21:16:38.452Z,53.10
2022-12-16T21:19:31.094Z,51.80
2022-12-16T21:22:20.513Z,54.70
2022-12-16T21:25:07.099Z,53.80
2022-12-16T21:27:53.985Z,51.70
2022-12-16T21:30:45.131Z,50.90
2022-12-16T21:33:37.936Z,62.70
2022-12-16T21:36:28.719Z,57.60
2022-12-16T21:39:16.514Z,56.30
2022-12-16T21:42:03.060Z,55.20
2022-12-16T21:44:49.480Z,57.20
2022-12-16T21:47:35.817Z,50.70
2022-12-16T21:50:24.296Z,58.90
2022-12-16T21:53:11.690Z,58.70
2022-12-16T21:55:58.049Z,53.30
2022-12-16T21:58:46.021Z,55.20
2022-12-16T22:01:33.865Z,52.30
2022-12-16T22:04:21.421Z,53.40
2022-12-16T22:07:08.723Z,56.50
2022-12-16T22:09:57.980Z,54.10
2022-12-16T22:12:46.050Z,58.10
2022-12-16T22:15:32.613Z,58.10
2022-12-16T22:18:19.325Z,57.70
2022-12-16T22:21:21.744Z,57.50
2022-12-16T22:24:09.477Z,54.80
2022-12-16T22:26:57.644Z,56.30
2022-12-16T22:29:44.469Z,58.10
2022-12-16T22:32:31.240Z,63.00
2022-12-16T22:35:18.327Z,66.40
2022-12-16T22:38:05.129Z,67.70
2022-12-16T22:40:51.809Z,65.70
2022-12-16T22:43:51.483Z,65.60
2022-12-16T22:46:39.015Z,67.60
2022-12-16T22:49:26.820Z,63.60
2022-12-16T22:52:13.607Z,63.50
2022-12-16T22:55:01.931Z,65.10
2022-12-16T22:57:50.984Z,68.80
2022-12-16T23:00:41.461Z,68.00
2022-12-16T23:03:34.488Z,69.40
2022-12-16T23:06:23.099Z,71.40
2022-12-16T23:09:09.898Z,71.80
2022-12-16T23:12:00.425Z,77.30
2022-12-16T23:14:48.855Z,67.30
2022-12-16T23:17:35.643Z,68.60
2022-12-16T23:20:24.856Z,69.60
2022-12-16T23:23:15.355Z,77.60
2022-12-16T23:26:18.887Z,72.00
2022-12-16T23:29:11.336Z,68.30
2022-12-16T23:31:59.982Z,68.60
2022-12-16T23:34:47.692Z,73.60
2022-12-16T23:37:36.514Z,79.30
2022-12-16T23:40:25.162Z,69.20
2022-12-16T23:43:16.462Z,83.20
2022-12-16T23:46:03.007Z,67.40
2022-12-16T23:48:49.649Z,78.50
2022-12-16T23:51:36.410Z,62.60
2022-12-16T23:54:23.187Z,74.70
2022-12-16T23:57:09.837Z,68.10
2022-12-16T23:59:56.533Z,75.50
